Time;durP1;ratioP1;P1;durP2;ratioP2;P2;SDS_P1;SDS_P2;PMS_P1;PMS_P2;Temp;Humidity;BMP_temperature;BMP_pressure;BME280_temperature;BME280_humidity;BME280_pressure;Samples;Min_cycle;Max_cycle;Signal;HPM_P1;HPM_P2
2022/03/07 00:00:58;;;;;;;0.90;0.90;;;3.10;99.90;2.20;102543.00;;;;5097981;28;20184;-71
2022/03/07 00:03:27;;;;;;;0.70;0.70;;;3.00;99.90;1.80;102474.00;;;;5115249;28;20180;-70
2022/03/07 00:05:55;;;;;;;0.70;0.70;;;2.80;99.90;2.00;102527.00;;;;5098182;28;20180;-70
2022/03/07 00:08:23;;;;;;;1.10;1.00;;;2.80;99.90;2.00;102529.00;;;;5116143;28;20628;-70
2022/03/07 00:10:49;;;;;;;0.57;0.57;;;2.80;99.90;1.60;102526.00;;;;5097932;28;20521;-70
2022/03/07 00:13:18;;;;;;;2.13;1.23;;;2.60;99.90;1.80;102523.00;;;;5115117;28;20178;-70
2022/03/07 00:15:44;;;;;;;0.50;0.50;;;2.60;99.90;1.80;102516.00;;;;5114655;28;20255;-70
2022/03/07 00:18:12;;;;;;;0.90;0.90;;;2.60;99.90;1.90;102524.00;;;;5097181;28;20357;-70
2022/03/07 00:20:43;;;;;;;0.73;0.73;;;2.60;99.90;1.60;102518.00;;;;5114899;28;20207;-70
2022/03/07 00:23:15;;;;;;;0.50;0.50;;;2.50;99.90;1.70;102529.00;;;;5097951;28;20172;-70
2022/03/07 00:25:41;;;;;;;0.50;0.50;;;2.50;99.90;1.60;102524.00;;;;5115742;28;20152;-70
2022/03/07 00:28:07;;;;;;;0.63;0.63;;;2.50;99.90;1.60;102525.00;;;;5115824;28;20264;-70
2022/03/07 00:30:33;;;;;;;0.80;0.80;;;2.50;99.90;1.50;102530.00;;;;5097423;28;20270;-71
2022/03/07 00:33:02;;;;;;;0.50;0.50;;;2.50;99.90;2.00;102531.00;;;;5115650;28;20663;-69
2022/03/07 00:35:30;;;;;;;0.57;0.57;;;2.70;99.90;2.10;102543.00;;;;5097534;28;20263;-70
2022/03/07 00:37:59;;;;;;;0.50;0.50;;;2.60;99.90;2.60;102497.00;;;;5114267;28;20208;-70
2022/03/07 00:40:28;;;;;;;0.50;0.50;;;2.80;99.90;2.70;102555.00;;;;5114466;28;20176;-70
2022/03/07 00:42:56;;;;;;;0.60;0.60;;;2.90;99.90;2.50;102562.00;;;;5115643;28;20180;-70
2022/03/07 00:45:22;;;;;;;1.37;1.33;;;3.00;99.90;2.10;102559.00;;;;5097362;28;20171;-70
2022/03/07 00:47:50;;;;;;;0.97;0.87;;;2.80;99.90;2.00;102558.00;;;;5114472;28;20199;-69
2022/03/07 00:50:19;;;;;;;0.60;0.60;;;2.70;99.90;1.70;102532.00;;;;5097782;28;20683;-70
2022/03/07 00:52:50;;;;;;;3.13;2.97;;;2.60;99.90;1.70;102505.00;;;;5096802;28;20211;-69
2022/03/07 00:55:18;;;;;;;0.70;0.70;;;2.50;99.90;2.10;102559.00;;;;5113140;28;20180;-70
2022/03/07 00:57:44;;;;;;;0.70;0.70;;;2.50;99.90;2.30;102549.00;;;;5096979;28;20275;-70
2022/03/07 01:00:10;;;;;;;0.87;0.87;;;2.70;99.90;2.30;102562.00;;;;5097089;28;20215;-70
2022/03/07 01:02:39;;;;;;;0.50;0.50;;;2.70;99.90;2.30;102509.00;;;;5114127;28;20286;-71
2022/03/07 01:05:08;;;;;;;0.50;0.50;;;2.70;99.90;2.20;102558.00;;;;5113886;28;20655;-70
2022/03/07 01:07:40;;;;;;;1.70;1.63;;;2.60;99.90;1.80;102558.00;;;;5096562;28;20179;-71
2022/03/07 01:10:06;;;;;;;1.00;1.00;;;2.50;99.90;1.30;102497.00;;;;5113848;28;20191;-71
2022/03/07 01:12:34;;;;;;;0.90;0.90;;;2.30;99.90;1.10;102546.00;;;;5113979;28;20199;-71
2022/03/07 01:15:01;;;;;;;0.50;0.50;;;2.10;99.90;0.50;102532.00;;;;5096862;28;20267;-70
2022/03/07 01:17:29;;;;;;;1.23;1.23;;;1.90;99.90;0.80;102490.00;;;;5096745;28;20180;-71
2022/03/07 01:19:55;;;;;;;1.60;1.17;;;1.80;99.90;0.80;102531.00;;;;5096942;28;20176;-70
2022/03/07 01:22:26;;;;;;;0.93;0.93;;;1.90;99.90;0.90;102534.00;;;;5096730;28;20634;-71
2022/03/07 01:25:00;;;;;;;1.03;1.03;;;1.90;99.90;1.30;102522.00;;;;5096654;28;20180;-70
2022/03/07 01:27:26;;;;;;;0.40;0.40;;;2.00;99.90;1.20;102480.00;;;;5113925;28;20634;-71
2022/03/07 01:29:54;;;;;;;0.90;0.90;;;1.90;99.90;1.30;102539.00;;;;5113629;28;20225;-70
2022/03/07 01:32:23;;;;;;;1.07;0.93;;;2.10;99.90;1.70;102534.00;;;;5096072;28;20212;-70
2022/03/07 01:34:51;;;;;;;2.00;1.03;;;2.10;99.90;1.40;102526.00;;;;5096347;28;20188;-70
2022/03/07 01:37:22;;;;;;;0.50;0.50;;;2.20;99.90;1.20;102479.00;;;;5096490;28;20632;-70
2022/03/07 01:39:48;;;;;;;0.70;0.70;;;2.00;99.90;1.60;102527.00;;;;5113341;28;20680;-70
2022/03/07 01:42:24;;;;;;;1.70;1.60;;;2.10;99.90;1.40;102527.00;;;;5096084;28;20179;-70
2022/03/07 01:45:11;;;;;;;1.70;1.60;;;2.10;99.90;1.20;102539.00;;;;5113118;28;20180;-70
2022/03/07 01:47:41;;;;;;;1.23;1.23;;;2.10;99.90;1.50;102524.00;;;;5113332;28;20623;-71
2022/03/07 01:50:13;;;;;;;0.40;0.40;;;2.00;99.90;1.40;102528.00;;;;5114105;28;20176;-71
2022/03/07 01:52:47;;;;;;;1.17;1.17;;;2.10;99.90;1.00;102491.00;;;;5113098;28;20204;-70
2022/03/07 01:55:17;;;;;;;0.73;0.73;;;2.00;99.90;0.80;102519.00;;;;5096383;28;20168;-70
2022/03/07 01:57:45;;;;;;;0.47;0.47;;;1.80;99.90;1.00;102464.00;;;;5112864;28;20180;-70
2022/03/07 02:00:17;;;;;;;1.30;1.30;;;1.80;99.90;1.00;102422.00;;;;5112990;28;20175;-71
2022/03/07 02:02:44;;;;;;;0.50;0.50;;;1.80;99.90;0.90;102513.00;;;;5095831;28;20643;-71
2022/03/07 02:05:11;;;;;;;0.70;0.70;;;1.70;99.90;0.40;102500.00;;;;5112721;28;20211;-71
2022/03/07 02:07:37;;;;;;;0.50;0.50;;;1.60;99.90;1.00;102508.00;;;;5112442;28;20180;-70
2022/03/07 02:10:06;;;;;;;1.93;1.83;;;1.60;99.90;0.50;102510.00;;;;5112907;28;20236;-73
2022/03/07 02:12:35;;;;;;;0.73;0.73;;;1.60;99.90;0.80;102511.00;;;;5112871;28;20248;-72
2022/03/07 02:15:05;;;;;;;0.50;0.50;;;1.60;99.90;0.50;102505.00;;;;5095812;28;20264;-70
2022/03/07 02:17:34;;;;;;;0.40;0.40;;;1.50;99.90;0.20;102512.00;;;;5095712;28;20186;-71
2022/03/07 02:20:05;;;;;;;0.60;0.60;;;1.50;99.90;0.30;102489.00;;;;5112418;28;20180;-71
2022/03/07 02:22:34;;;;;;;1.00;1.00;;;1.40;99.90;0.10;102501.00;;;;5112695;28;20179;-71
2022/03/07 02:25:06;;;;;;;2.13;1.93;;;1.30;99.90;0.10;102492.00;;;;5095435;28;20276;-70
2022/03/07 02:27:35;;;;;;;0.63;0.63;;;1.20;99.90;0.30;102495.00;;;;5113015;28;20176;-71
2022/03/07 02:30:05;;;;;;;0.90;0.90;;;1.30;99.90;0.40;102500.00;;;;5111989;28;20199;-71
2022/03/07 02:32:34;;;;;;;0.60;0.60;;;1.40;99.90;0.70;102494.00;;;;5112111;28;20207;-72
2022/03/07 02:35:00;;;;;;;4.43;1.27;;;1.50;99.90;0.70;102437.00;;;;5095519;28;20273;-72
2022/03/07 02:37:33;;;;;;;0.90;0.90;;;1.60;99.90;0.70;102483.00;;;;5112327;28;20176;-70
2022/03/07 02:40:06;;;;;;;0.77;0.77;;;1.60;99.90;0.50;102496.00;;;;5112773;28;20188;-68
2022/03/07 02:42:37;;;;;;;0.40;0.40;;;1.60;99.90;0.60;102482.00;;;;5112515;28;20180;-69
2022/03/07 02:45:07;;;;;;;0.43;0.43;;;1.60;99.90;0.50;102425.00;;;;5112497;28;20662;-69
2022/03/07 02:47:38;;;;;;;0.87;0.87;;;1.50;99.90;0.70;102467.00;;;;5111998;28;20172;-69
2022/03/07 02:50:08;;;;;;;0.53;0.53;;;1.50;99.90;0.70;102469.00;;;;5112472;28;20222;-70
2022/03/07 02:52:36;;;;;;;0.40;0.40;;;1.60;99.90;0.40;102481.00;;;;5095430;28;20212;-69
2022/03/07 02:55:02;;;;;;;0.80;0.80;;;1.40;99.90;0.50;102473.00;;;;5112440;28;20233;-69
2022/03/07 02:57:36;;;;;;;0.57;0.57;;;1.40;99.90;0.40;102485.00;;;;5095271;28;20191;-70
2022/03/07 03:00:03;;;;;;;0.57;0.57;;;1.30;99.90;0.60;102486.00;;;;5112368;28;20176;-69
2022/03/07 03:02:29;;;;;;;0.40;0.40;;;1.50;99.90;0.50;102475.00;;;;5111949;28;20199;-70
2022/03/07 03:04:58;;;;;;;0.90;0.90;;;1.40;99.90;0.70;102469.00;;;;5095372;28;20534;-69
2022/03/07 03:07:24;;;;;;;2.37;1.63;;;1.50;99.90;0.80;102478.00;;;;5112496;28;20161;-70
2022/03/07 03:09:55;;;;;;;0.67;0.67;;;1.60;99.90;1.00;102490.00;;;;5095160;28;20287;-70
2022/03/07 03:12:24;;;;;;;0.50;0.50;;;1.70;99.90;1.00;102432.00;;;;5095906;28;20196;-69
2022/03/07 03:14:50;;;;;;;0.50;0.50;;;1.70;99.90;0.60;102469.00;;;;5113645;28;20596;-69
2022/03/07 03:17:20;;;;;;;0.50;0.50;;;1.60;99.90;0.50;102484.00;;;;5094989;28;20210;-70
2022/03/07 03:19:51;;;;;;;1.33;1.13;;;1.50;99.90;0.30;102470.00;;;;5116662;28;20581;-69
2022/03/07 03:22:27;;;;;;;0.50;0.50;;;1.40;99.90;0.30;102479.00;;;;5116514;28;20180;-69
2022/03/07 03:24:52;;;;;;;0.60;0.60;;;1.40;99.90;0.60;102476.00;;;;5115900;28;20179;-69
2022/03/07 03:27:21;;;;;;;1.47;1.37;;;1.50;99.90;0.80;102482.00;;;;5098938;28;20176;-69
2022/03/07 03:29:53;;;;;;;1.53;1.43;;;1.60;99.90;0.80;102487.00;;;;5115740;28;20627;-69
2022/03/07 03:32:23;;;;;;;0.50;0.50;;;1.60;99.90;1.40;102440.00;;;;5115428;28;20211;-69
2022/03/07 03:34:57;;;;;;;0.80;0.80;;;1.90;99.90;1.40;102429.00;;;;5115603;28;20172;-70
2022/03/07 03:37:28;;;;;;;0.80;0.80;;;1.90;99.90;1.30;102492.00;;;;5098813;28;20270;-69
2022/03/07 03:39:59;;;;;;;0.50;0.50;;;1.90;99.90;1.20;102491.00;;;;5098841;28;20580;-70
2022/03/07 03:42:24;;;;;;;0.50;0.50;;;1.80;99.90;1.40;102472.00;;;;5098770;28;20271;-69
2022/03/07 03:44:57;;;;;;;0.60;0.60;;;1.70;99.90;1.30;102505.00;;;;5098148;28;20207;-69
2022/03/07 03:47:28;;;;;;;0.50;0.50;;;1.60;99.90;1.20;102489.00;;;;5116707;28;20203;-70
2022/03/07 03:49:57;;;;;;;0.60;0.60;;;1.60;99.90;0.70;102501.00;;;;5115375;28;20619;-69
2022/03/07 03:52:25;;;;;;;0.60;0.60;;;1.30;99.90;1.10;102505.00;;;;5098603;28;20218;-69
2022/03/07 03:55:01;;;;;;;0.60;0.60;;;1.20;99.90;0.80;102455.00;;;;5098307;28;20535;-70
2022/03/07 03:57:27;;;;;;;0.60;0.60;;;1.20;99.90;0.40;102440.00;;;;5099127;28;20202;-70
2022/03/07 03:59:56;;;;;;;0.60;0.60;;;1.00;99.90;0.50;102510.00;;;;5097918;28;20184;-69
2022/03/07 04:02:25;;;;;;;0.60;0.60;;;1.00;99.90;0.70;102507.00;;;;5115192;28;20180;-71
2022/03/07 04:04:52;;;;;;;0.50;0.50;;;1.00;99.90;0.60;102472.00;;;;5097928;28;20179;-70
2022/03/07 04:07:24;;;;;;;0.60;0.60;;;0.90;99.90;0.30;102499.00;;;;5115114;28;20173;-70
2022/03/07 04:09:55;;;;;;;0.53;0.53;;;0.80;99.90;0.30;102491.00;;;;5115467;28;20214;-70
2022/03/07 04:12:21;;;;;;;0.60;0.60;;;0.70;99.90;0.50;102487.00;;;;5116350;28;20210;-70
2022/03/07 04:14:53;;;;;;;0.50;0.50;;;0.80;99.90;0.40;102424.00;;;;5114676;28;20172;-70
2022/03/07 04:17:19;;;;;;;0.57;0.57;;;0.80;99.90;0.60;102482.00;;;;5115024;28;20179;-70
2022/03/07 04:19:47;;;;;;;0.50;0.50;;;0.80;99.90;0.40;102465.00;;;;5097597;28;20184;-69
2022/03/07 04:22:19;;;;;;;0.87;0.87;;;0.90;99.90;-0.10;102433.00;;;;5098717;28;20176;-70
2022/03/07 04:24:44;;;;;;;0.50;0.50;;;0.80;99.90;0.10;102466.00;;;;5115761;28;20696;-70
2022/03/07 04:27:10;;;;;;;0.40;0.40;;;0.70;99.90;-0.10;102459.00;;;;5097755;28;20176;-70
2022/03/07 04:29:36;;;;;;;2.80;2.60;;;0.70;99.90;0.20;102459.00;;;;5097237;28;20618;-70
2022/03/07 04:32:03;;;;;;;0.47;0.47;;;0.70;99.90;0.60;102471.00;;;;5114375;28;20220;-71
2022/03/07 04:34:33;;;;;;;0.40;0.40;;;0.90;99.90;0.50;102471.00;;;;5097469;28;20188;-70
2022/03/07 04:37:04;;;;;;;0.40;0.40;;;1.00;99.90;0.60;102470.00;;;;5114709;28;20620;-70
2022/03/07 04:39:32;;;;;;;0.40;0.40;;;0.90;99.90;0.60;102474.00;;;;5114488;28;20183;-70
2022/03/07 04:42:01;;;;;;;0.40;0.40;;;1.00;99.90;-0.10;102479.00;;;;5097438;28;20172;-69
2022/03/07 04:44:29;;;;;;;0.30;0.30;;;0.80;99.90;-0.30;102462.00;;;;5114067;28;20180;-70
2022/03/07 04:47:00;;;;;;;0.50;0.50;;;0.60;99.90;-0.20;102405.00;;;;5114303;28;20180;-69
2022/03/07 04:49:28;;;;;;;0.87;0.87;;;0.60;99.90;-0.30;102458.00;;;;5097287;28;20178;-70
2022/03/07 04:51:57;;;;;;;0.30;0.30;;;0.60;99.90;-0.30;102404.00;;;;5097684;28;20287;-69
2022/03/07 04:54:23;;;;;;;1.23;1.23;;;0.50;99.90;-0.40;102461.00;;;;5097285;28;20175;-70
2022/03/07 04:56:51;;;;;;;0.40;0.40;;;0.50;99.90;-0.10;102463.00;;;;5097373;28;20596;-70
2022/03/07 04:59:20;;;;;;;0.30;0.30;;;0.50;99.90;0.00;102462.00;;;;5113738;28;20203;-70
2022/03/07 05:01:48;;;;;;;0.30;0.30;;;0.60;99.90;0.20;102469.00;;;;5097056;28;20192;-70
2022/03/07 05:04:20;;;;;;;0.60;0.60;;;0.60;99.90;0.20;102467.00;;;;5113982;28;20659;-70
2022/03/07 05:06:48;;;;;;;1.70;1.60;;;0.70;99.90;0.40;102465.00;;;;5097353;28;20623;-70
2022/03/07 05:09:17;;;;;;;0.40;0.40;;;0.80;99.90;0.40;102467.00;;;;5097254;28;20563;-70
2022/03/07 05:11:45;;;;;;;0.30;0.30;;;0.80;99.90;0.20;102475.00;;;;5113635;28;20195;-71
2022/03/07 05:14:13;;;;;;;0.50;0.50;;;0.90;99.90;0.40;102448.00;;;;5097079;28;20218;-70
2022/03/07 05:16:42;;;;;;;0.47;0.47;;;0.90;99.90;0.50;102464.00;;;;5113570;28;20224;-70
2022/03/07 05:19:13;;;;;;;0.30;0.30;;;0.80;99.90;0.40;102459.00;;;;5113745;28;20175;-70
2022/03/07 05:21:42;;;;;;;0.57;0.57;;;0.90;99.90;0.60;102466.00;;;;5096831;28;20183;-70
2022/03/07 05:24:09;;;;;;;0.40;0.40;;;1.10;99.90;0.40;102476.00;;;;5096695;28;20262;-70
2022/03/07 05:26:38;;;;;;;0.40;0.40;;;1.00;99.90;0.20;102464.00;;;;5113224;28;20172;-70
2022/03/07 05:29:10;;;;;;;0.30;0.30;;;0.70;99.90;-0.10;102464.00;;;;5114866;28;20172;-70
2022/03/07 05:31:38;;;;;;;0.30;0.30;;;0.60;99.90;-0.30;102388.00;;;;5113561;28;20238;-70
2022/03/07 05:34:04;;;;;;;0.60;0.60;;;0.50;99.90;-0.20;102460.00;;;;5113341;28;20192;-70
2022/03/07 05:36:34;;;;;;;1.77;1.67;;;0.40;99.90;-0.10;102411.00;;;;5113442;28;20183;-70
2022/03/07 05:39:06;;;;;;;0.40;0.40;;;0.70;99.90;-0.10;102472.00;;;;5113324;28;20172;-70
2022/03/07 05:41:37;;;;;;;0.93;0.93;;;0.60;99.90;-0.40;102394.00;;;;5112757;28;20161;-70
2022/03/07 05:44:03;;;;;;;0.50;0.50;;;0.60;99.90;-0.10;102458.00;;;;5113149;28;20168;-70
2022/03/07 05:46:29;;;;;;;1.57;1.03;;;0.50;99.90;0.20;102460.00;;;;5113224;28;20581;-71
2022/03/07 05:48:59;;;;;;;2.53;0.70;;;0.60;99.90;0.40;102406.00;;;;5112750;28;20191;-71
2022/03/07 05:51:30;;;;;;;0.40;0.40;;;0.70;99.90;0.30;102463.00;;;;5112894;28;20203;-71
2022/03/07 05:53:59;;;;;;;0.80;0.80;;;0.80;99.90;0.00;102478.00;;;;5096625;28;20180;-71
2022/03/07 05:56:27;;;;;;;1.03;0.97;;;0.80;99.90;0.10;102471.00;;;;5096337;28;20188;-70
2022/03/07 05:59:44;;;;;;;0.50;0.50;;;0.80;99.90;-0.20;102465.00;;;;5113215;28;20175;-71
2022/03/07 06:02:18;;;;;;;0.60;0.60;;;0.50;99.90;-0.10;102462.00;;;;5113009;28;20271;-71
2022/03/07 06:04:47;;;;;;;0.40;0.40;;;0.70;99.90;-0.10;102403.00;;;;5112814;28;20184;-70
2022/03/07 06:07:15;;;;;;;0.50;0.50;;;0.60;99.90;-0.20;102415.00;;;;5112677;28;20600;-70
2022/03/07 06:09:47;;;;;;;0.57;0.57;;;0.50;99.90;-0.50;102466.00;;;;5096056;28;20615;-70
2022/03/07 06:12:21;;;;;;;0.40;0.40;;;0.50;99.90;0.00;102480.00;;;;5096315;28;20196;-71
2022/03/07 06:14:49;;;;;;;0.43;0.43;;;0.60;99.90;-0.40;102482.00;;;;5112980;28;20179;-70
2022/03/07 06:17:21;;;;;;;0.50;0.50;;;0.50;99.90;0.40;102487.00;;;;5095451;28;20188;-70
2022/03/07 06:19:52;;;;;;;0.40;0.40;;;0.70;99.90;0.10;102480.00;;;;5112903;28;20708;-71
2022/03/07 06:22:20;;;;;;;1.13;1.13;;;0.70;99.90;-0.50;102486.00;;;;5095725;28;20282;-70
2022/03/07 06:24:46;;;;;;;0.50;0.50;;;0.60;99.90;-0.70;102485.00;;;;5095224;28;20627;-71
2022/03/07 06:27:20;;;;;;;0.30;0.30;;;0.40;99.90;-0.30;102478.00;;;;5095561;28;20186;-71
2022/03/07 06:29:50;;;;;;;0.40;0.40;;;0.40;99.90;0.20;102502.00;;;;5112943;28;20176;-71
2022/03/07 06:32:16;;;;;;;0.73;0.73;;;0.60;99.90;0.00;102490.00;;;;5112284;28;20215;-71
2022/03/07 06:34:44;;;;;;;0.43;0.43;;;0.60;99.90;-0.40;102444.00;;;;5113537;28;20183;-71
2022/03/07 06:37:10;;;;;;;0.40;0.40;;;0.50;99.90;-0.10;102425.00;;;;5095447;28;20188;-71
2022/03/07 06:39:38;;;;;;;1.27;0.80;;;0.60;99.90;0.20;102490.00;;;;5112667;28;20182;-70
2022/03/07 06:42:09;;;;;;;0.40;0.40;;;0.60;99.90;0.40;102506.00;;;;5112342;28;20229;-71
2022/03/07 06:44:39;;;;;;;0.67;0.67;;;0.90;99.90;0.40;102448.00;;;;5112585;28;20183;-71
2022/03/07 06:47:11;;;;;;;1.50;1.43;;;1.00;99.90;0.00;102486.00;;;;5112276;28;20172;-70
2022/03/07 06:49:37;;;;;;;0.97;0.80;;;0.90;99.90;0.60;102497.00;;;;5095747;28;20179;-70
2022/03/07 06:53:00;;;;;;;5.70;1.90;;;1.10;99.90;0.40;102511.00;;;;5095134;28;20246;-70
2022/03/07 06:55:32;;;;;;;1.27;1.23;;;1.10;99.90;0.40;102512.00;;;;5115734;28;20188;-70
2022/03/07 06:58:06;;;;;;;2.87;2.67;;;1.20;99.90;0.40;102510.00;;;;5116354;28;20210;-70
2022/03/07 07:00:32;;;;;;;0.67;0.67;;;1.20;99.90;0.80;102507.00;;;;5116995;28;20188;-70
2022/03/07 07:03:03;;;;;;;0.30;0.30;;;1.30;99.90;0.40;102501.00;;;;5116611;28;20710;-69
2022/03/07 07:05:29;;;;;;;0.50;0.50;;;1.30;99.90;0.10;102444.00;;;;5116378;28;20267;-70
2022/03/07 07:08:00;;;;;;;2.43;1.63;;;1.20;99.90;0.80;102512.00;;;;5115643;28;20217;-71
2022/03/07 07:10:31;;;;;;;1.17;1.17;;;1.40;99.90;0.90;102522.00;;;;5116675;28;20153;-70
2022/03/07 07:13:02;;;;;;;2.27;2.17;;;1.60;99.90;0.80;102523.00;;;;5099831;28;20211;-70
2022/03/07 07:15:33;;;;;;;1.80;1.70;;;1.60;99.90;1.60;102521.00;;;;5099110;28;20191;-71
2022/03/07 07:18:05;;;;;;;11.63;1.67;;;2.00;99.90;1.50;102538.00;;;;5116134;28;20176;-71
2022/03/07 07:20:36;;;;;;;0.90;0.90;;;2.20;99.90;1.60;102545.00;;;;5098927;28;20180;-70
2022/03/07 07:23:04;;;;;;;1.80;1.70;;;2.20;99.90;1.50;102559.00;;;;5115841;28;20643;-71
2022/03/07 07:25:35;;;;;;;0.93;0.83;;;2.20;99.90;1.70;102498.00;;;;5116036;28;20218;-71
2022/03/07 07:28:03;;;;;;;0.60;0.60;;;2.30;99.90;1.70;102503.00;;;;5115859;28;20167;-71
2022/03/07 07:30:29;;;;;;;0.70;0.70;;;2.30;99.90;2.10;102569.00;;;;5115862;28;20296;-71
2022/03/07 07:33:03;;;;;;;2.50;0.97;;;2.50;99.90;2.00;102572.00;;;;5115569;28;20615;-71
2022/03/07 07:35:36;;;;;;;1.80;1.70;;;2.60;99.90;1.90;102579.00;;;;5115528;28;20176;-71
2022/03/07 07:38:07;;;;;;;1.23;1.13;;;2.60;99.90;2.20;102568.00;;;;5115797;28;20658;-71
2022/03/07 07:40:33;;;;;;;2.10;1.90;;;2.70;99.90;2.50;102589.00;;;;5115971;28;20270;-71
2022/03/07 07:43:05;;;;;;;1.90;1.80;;;2.80;99.90;2.80;102601.00;;;;5115553;28;20263;-70
2022/03/07 07:45:33;;;;;;;1.00;1.00;;;3.10;99.90;2.80;102610.00;;;;5098671;28;20267;-70
2022/03/07 07:48:02;;;;;;;1.47;1.37;;;3.30;99.90;3.60;102629.00;;;;5098352;28;20186;-71
2022/03/07 07:50:35;;;;;;;1.33;1.23;;;3.70;99.90;4.10;102644.00;;;;5115305;28;20184;-70
2022/03/07 07:53:01;;;;;;;1.53;1.43;;;4.20;99.90;4.10;102648.00;;;;5098555;28;20647;-70
2022/03/07 07:55:34;;;;;;;1.70;1.60;;;4.30;99.90;4.10;102607.00;;;;5116447;28;20263;-71
2022/03/07 07:58:06;;;;;;;2.90;2.27;;;4.50;99.90;4.70;102690.00;;;;5115528;28;20172;-71
2022/03/07 08:00:36;;;;;;;2.97;2.73;;;4.80;99.90;4.00;102702.00;;;;5097955;28;20654;-70
2022/03/07 08:03:07;;;;;;;3.80;2.93;;;4.70;99.90;4.00;102717.00;;;;5115228;28;20232;-71
2022/03/07 08:05:36;;;;;;;1.57;1.57;;;4.50;99.90;3.80;102732.00;;;;5115748;28;20186;-71
2022/03/07 08:08:04;;;;;;;2.43;2.23;;;4.40;99.90;4.00;102677.00;;;;5097773;28;20267;-71
2022/03/07 08:10:33;;;;;;;0.87;0.77;;;4.50;99.90;4.20;102748.00;;;;5114906;28;20176;-72
2022/03/07 08:13:15;;;;;;;6.50;1.97;;;4.70;99.90;4.00;102574.00;;;;5097814;28;20594;-70
2022/03/07 08:15:46;;;;;;;5.17;3.50;;;4.70;99.90;4.40;102757.00;;;;5097969;28;20189;-70
2022/03/07 08:18:17;;;;;;;1.10;1.10;;;4.80;99.90;4.40;102764.00;;;;5098524;28;20185;-71
2022/03/07 08:20:44;;;;;;;3.20;2.90;;;4.80;99.90;4.80;102734.00;;;;5097979;28;20639;-70
2022/03/07 08:23:12;;;;;;;3.50;2.50;;;5.00;99.90;5.00;102802.00;;;;5114765;28;20183;-69
2022/03/07 08:25:38;;;;;;;4.17;3.13;;;5.20;99.90;4.80;102679.00;;;;5115803;28;20181;-70
2022/03/07 08:28:07;;;;;;;3.30;2.23;;;5.10;99.90;4.20;102667.00;;;;5114862;28;20244;-69
2022/03/07 08:30:39;;;;;;;1.53;1.43;;;4.90;99.90;4.40;102608.00;;;;5114153;28;20252;-70
2022/03/07 08:33:07;;;;;;;3.60;2.77;;;4.80;99.90;4.10;102678.00;;;;5097303;28;20744;-70
2022/03/07 08:35:39;;;;;;;6.40;3.70;;;4.80;99.90;4.20;102626.00;;;;5097134;28;20192;-70
2022/03/07 08:38:05;;;;;;;1.60;1.50;;;4.60;99.90;4.40;102670.00;;;;5115996;28;20177;-71
2022/03/07 08:40:33;;;;;;;2.63;2.40;;;4.70;99.90;4.30;102678.00;;;;5114336;28;20639;-71
2022/03/07 08:43:10;;;;;;;2.93;2.60;;;4.80;99.90;4.70;102624.00;;;;5114864;28;20211;-71
2022/03/07 08:45:38;;;;;;;1.57;1.47;;;5.00;99.90;4.60;102662.00;;;;5098102;28;20187;-71
2022/03/07 08:48:07;;;;;;;1.50;0.83;;;5.00;99.90;5.50;102687.00;;;;5097691;28;20173;-71
2022/03/07 08:50:41;;;;;;;1.10;1.10;;;5.50;99.90;5.80;102665.00;;;;5113125;28;20653;-71
2022/03/07 08:53:07;;;;;;;0.40;0.40;;;5.80;99.90;5.70;102660.00;;;;5115391;28;20672;-71
2022/03/07 08:55:39;;;;;;;2.00;1.90;;;5.90;99.90;5.80;102670.00;;;;5114480;28;20228;-71
2022/03/07 08:58:10;;;;;;;3.33;1.97;;;6.10;99.90;5.00;102607.00;;;;5113277;28;20289;-70
2022/03/07 09:00:41;;;;;;;2.00;1.90;;;5.70;99.90;5.40;102678.00;;;;5113850;28;20264;-70
2022/03/07 09:03:12;;;;;;;2.83;2.30;;;5.60;99.90;4.60;102652.00;;;;5097263;28;20185;-71
2022/03/07 09:05:45;;;;;;;1.53;1.43;;;5.10;99.90;4.40;102684.00;;;;5113854;28;20178;-71
2022/03/07 09:08:21;;;;;;;2.90;1.40;;;4.90;99.90;4.60;102652.00;;;;5097449;28;20176;-70
2022/03/07 09:10:49;;;;;;;2.83;1.70;;;5.00;99.90;4.80;102656.00;;;;5097662;28;20562;-70
2022/03/07 09:13:18;;;;;;;1.70;1.53;;;5.20;99.90;5.00;102657.00;;;;5096414;28;20213;-70
2022/03/07 09:15:48;;;;;;;2.17;2.03;;;5.30;99.90;5.10;102650.00;;;;5096063;28;20193;-71
2022/03/07 09:18:22;;;;;;;1.50;1.33;;;5.40;99.90;5.30;102646.00;;;;5113933;28;20178;-70
2022/03/07 09:20:50;;;;;;;3.43;2.93;;;5.50;99.90;5.20;102649.00;;;;5113794;28;20170;-70
2022/03/07 09:23:21;;;;;;;0.63;0.63;;;5.60;99.90;5.50;102642.00;;;;5096508;28;20716;-69
2022/03/07 09:25:49;;;;;;;2.73;1.30;;;5.80;99.90;5.30;102649.00;;;;5114763;28;20190;-69
2022/03/07 09:28:17;;;;;;;3.10;2.77;;;5.70;99.90;5.10;102583.00;;;;5114084;28;20187;-69
2022/03/07 09:30:43;;;;;;;1.67;1.57;;;5.60;99.90;5.30;102626.00;;;;5096560;28;20194;-69
2022/03/07 09:33:14;;;;;;;3.67;2.40;;;5.70;99.90;5.20;102617.00;;;;5096148;28;20218;-71
2022/03/07 09:35:42;;;;;;;9.20;2.90;;;5.60;99.90;5.20;102625.00;;;;5113297;28;20540;-70
2022/03/07 09:38:13;;;;;;;0.40;0.40;;;5.60;99.90;5.20;102641.00;;;;5114745;28;20205;-70
2022/03/07 09:40:41;;;;;;;1.23;1.13;;;5.60;99.90;5.60;102623.00;;;;5096882;28;20635;-70
2022/03/07 09:43:07;;;;;;;2.50;2.30;;;5.90;99.90;5.30;102643.00;;;;5096262;28;20188;-69
2022/03/07 09:45:39;;;;;;;3.00;2.57;;;6.00;99.90;4.70;102574.00;;;;5096220;28;20225;-69
2022/03/07 09:48:08;;;;;;;3.33;2.03;;;5.50;99.90;5.40;102580.00;;;;5112968;28;20179;-69
2022/03/07 09:50:41;;;;;;;3.53;2.50;;;5.60;99.90;4.90;102634.00;;;;5095895;28;20706;-69
2022/03/07 09:53:18;;;;;;;4.73;1.80;;;5.50;99.90;5.30;102625.00;;;;5112642;28;20209;-68
2022/03/07 09:55:48;;;;;;;1.63;1.10;;;5.70;99.90;4.90;102629.00;;;;5113292;28;20207;-68
2022/03/07 09:58:19;;;;;;;3.13;2.50;;;5.50;99.90;5.40;102641.00;;;;5113219;28;20176;-69
2022/03/07 10:00:51;;;;;;;1.87;1.73;;;5.60;99.90;5.60;102613.00;;;;5113204;28;20219;-69
2022/03/07 10:03:20;;;;;;;1.73;1.50;;;5.90;99.90;5.20;102609.00;;;;5112440;28;20180;-68
2022/03/07 10:05:51;;;;;;;2.57;2.37;;;5.90;99.90;6.00;102606.00;;;;5095211;28;20222;-69
2022/03/07 10:08:27;;;;;;;1.07;1.07;;;6.20;99.90;6.20;102600.00;;;;5112821;28;20200;-69
2022/03/07 10:10:59;;;;;;;1.73;1.63;;;6.40;99.90;5.80;102602.00;;;;5113036;28;20215;-69
2022/03/07 10:13:28;;;;;;;2.35;2.08;;;6.40;99.90;5.80;102591.00;;;;5111581;28;20438;-68
2022/03/07 10:16:04;;;;;;;1.47;1.10;;;6.20;99.90;6.50;102594.00;;;;5096106;28;20637;-69
2022/03/07 10:18:37;;;;;;;1.77;1.67;;;6.50;99.90;6.70;102589.00;;;;5095570;28;20175;-69
2022/03/07 10:33:14;;;;;;;2.10;1.67;;;6.30;99.90;5.30;102594.00;;;;5114112;27;1302512;-69
2022/03/07 10:35:48;;;;;;;1.93;1.83;;;6.20;99.90;6.00;102581.00;;;;5113281;28;20184;-70
2022/03/07 10:38:21;;;;;;;1.50;1.40;;;6.40;99.90;6.50;102566.00;;;;5130535;28;20645;-70
2022/03/07 10:40:53;;;;;;;1.90;1.80;;;6.60;99.90;6.70;102561.00;;;;5113625;28;20176;-70
2022/03/07 10:43:23;;;;;;;0.67;0.67;;;7.00;99.90;7.20;102566.00;;;;5113193;28;20265;-70
2022/03/07 10:45:59;;;;;;;1.33;1.23;;;7.20;99.90;7.00;102562.00;;;;5130226;28;20229;-70
2022/03/07 10:48:41;;;;;;;5.87;2.43;;;7.30;99.90;6.70;102556.00;;;;5112889;28;20175;-70
2022/03/07 10:51:16;;;;;;;3.17;1.87;;;7.20;99.90;6.70;102558.00;;;;5130165;28;20211;-70
2022/03/07 10:53:47;;;;;;;0.93;0.93;;;7.10;99.90;6.80;102513.00;;;;5130340;28;20193;-70
2022/03/07 10:56:16;;;;;;;1.20;1.10;;;7.10;99.90;7.20;102548.00;;;;5130645;28;20182;-70
2022/03/07 10:58:53;;;;;;;1.43;1.33;;;7.30;99.90;7.80;102544.00;;;;5112915;28;20175;-70
2022/03/07 11:01:32;;;;;;;4.70;1.67;;;7.70;99.90;7.60;102533.00;;;;5129613;28;20577;-70
2022/03/07 11:04:04;;;;;;;2.63;2.43;;;7.80;99.90;6.80;102543.00;;;;5129713;28;20581;-70
2022/03/07 11:06:37;;;;;;;2.00;1.63;;;7.60;99.90;7.30;102529.00;;;;5129701;28;20185;-70
2022/03/07 11:09:06;;;;;;;2.03;1.93;;;7.60;99.90;6.40;102490.00;;;;5113156;28;20634;-70
2022/03/07 11:11:35;;;;;;;2.07;1.87;;;7.30;99.90;6.40;102533.00;;;;5129766;28;20198;-70
2022/03/07 11:14:01;;;;;;;0.77;0.73;;;7.20;99.90;7.10;102523.00;;;;5129933;28;20186;-71
2022/03/07 11:16:34;;;;;;;1.80;1.67;;;7.30;99.90;7.30;102475.00;;;;5129577;28;20181;-70
2022/03/07 11:19:05;;;;;;;1.83;1.43;;;7.50;99.90;6.90;102524.00;;;;5112923;28;20184;-70
2022/03/07 11:21:38;;;;;;;1.67;1.57;;;7.30;99.90;7.00;102523.00;;;;5112796;28;20182;-69
2022/03/07 11:24:07;;;;;;;1.73;1.63;;;7.40;99.90;7.30;102527.00;;;;5112740;28;20552;-70
2022/03/07 11:26:37;;;;;;;1.90;1.70;;;7.50;99.90;6.90;102522.00;;;;5129824;28;20183;-70